createdAt,value
2017-04-27T00:01:52.773Z,13.90
2017-04-27T00:04:20.421Z,11.95
2017-04-27T00:06:48.081Z,11.45
2017-04-27T00:09:15.728Z,12.93
2017-04-27T00:11:44.160Z,14.77
2017-04-27T00:14:11.800Z,13.88
2017-04-27T00:16:40.240Z,14.52
2017-04-27T00:19:08.649Z,15.57
2017-04-27T00:21:36.328Z,12.82
2017-04-27T00:24:03.978Z,12.08
2017-04-27T00:26:31.651Z,15.92
2017-04-27T00:29:00.081Z,16.47
2017-04-27T00:31:27.747Z,18.25
2017-04-27T00:33:55.390Z,18.57
2017-04-27T00:36:23.067Z,18.78
2017-04-27T00:38:51.484Z,15.12
2017-04-27T00:41:19.932Z,14.38
2017-04-27T00:43:47.594Z,15.70
2017-04-27T00:46:15.274Z,17.37
2017-04-27T00:48:42.917Z,13.05
2017-04-27T00:51:11.351Z,15.58
2017-04-27T00:53:39.018Z,14.05
2017-04-27T00:56:06.688Z,15.47
2017-04-27T00:58:35.090Z,14.38
2017-04-27T01:01:03.514Z,12.82
2017-04-27T01:03:31.950Z,13.95
2017-04-27T01:05:59.604Z,13.45
2017-04-27T01:08:27.275Z,12.82
2017-04-27T01:10:55.689Z,15.35
2017-04-27T01:13:24.132Z,14.45
2017-04-27T01:15:51.775Z,13.67
2017-04-27T01:18:19.491Z,13.00
2017-04-27T01:20:47.140Z,16.50
2017-04-27T01:23:15.591Z,15.95
2017-04-27T01:25:43.237Z,14.03
2017-04-27T01:28:10.915Z,17.07
2017-04-27T01:30:39.329Z,17.90
2017-04-27T01:33:06.997Z,19.40
2017-04-27T01:35:34.648Z,17.40
2017-04-27T01:38:02.319Z,16.75
2017-04-27T01:40:30.016Z,19.53
2017-04-27T01:42:58.448Z,15.47
2017-04-27T01:45:26.096Z,18.33
2017-04-27T01:47:53.777Z,19.63
2017-04-27T01:50:22.192Z,19.43
2017-04-27T01:52:50.624Z,17.93
2017-04-27T01:55:18.269Z,15.65
2017-04-27T01:57:47.461Z,16.88
2017-04-27T02:00:15.121Z,18.93
2017-04-27T02:02:43.557Z,14.87
2017-04-27T02:05:11.255Z,19.57
2017-04-27T02:07:39.199Z,14.27
2017-04-27T02:10:07.612Z,18.13
2017-04-27T02:12:35.264Z,14.92
2017-04-27T02:15:02.932Z,15.72
2017-04-27T02:17:30.592Z,18.32
2017-04-27T02:19:59.028Z,16.13
2017-04-27T02:22:26.677Z,18.68
2017-04-27T02:24:54.345Z,18.43
2017-04-27T02:27:22.004Z,18.35
2017-04-27T02:29:50.444Z,16.87
2017-04-27T02:32:18.094Z,19.92
2017-04-27T02:34:46.525Z,15.12
2017-04-27T02:37:14.161Z,19.85
2017-04-27T02:39:41.895Z,18.48
2017-04-27T02:42:09.537Z,20.62
2017-04-27T02:44:37.218Z,17.83
2017-04-27T02:47:04.876Z,18.93
2017-04-27T02:49:33.306Z,18.65
2017-04-27T02:52:00.953Z,18.47
2017-04-27T02:54:28.631Z,17.73
2017-04-27T02:56:57.055Z,15.78
2017-04-27T02:59:24.734Z,18.67
2017-04-27T03:01:52.381Z,17.22
2017-04-27T03:04:20.066Z,15.28
2017-04-27T03:06:47.708Z,16.28
2017-04-27T03:09:15.383Z,18.08
2017-04-27T03:11:43.031Z,14.45
2017-04-27T03:14:11.463Z,13.27
2017-04-27T03:16:39.108Z,14.38
2017-04-27T03:19:06.777Z,13.78
2017-04-27T03:21:35.193Z,13.12
2017-04-27T03:24:02.878Z,19.03
2017-04-27T03:26:31.283Z,18.35
2017-04-27T03:28:59.248Z,16.57
2017-04-27T03:31:26.912Z,15.00
2017-04-27T03:33:54.557Z,15.35
2017-04-27T03:36:22.237Z,19.12
2017-04-27T03:38:50.646Z,17.80
2017-04-27T03:41:18.319Z,18.83
2017-04-27T03:43:45.970Z,19.57
2017-04-27T03:46:13.663Z,19.53
2017-04-27T03:48:42.079Z,20.15
2017-04-27T03:51:09.757Z,16.28
2017-04-27T03:53:38.177Z,18.92
2017-04-27T03:56:05.858Z,15.48
2017-04-27T03:58:33.506Z,18.07
2017-04-27T04:01:01.182Z,18.58
2017-04-27T04:03:28.822Z,19.77
2017-04-27T04:05:57.267Z,17.67
2017-04-27T04:08:25.681Z,19.50
2017-04-27T04:10:53.362Z,17.98
2017-04-27T04:13:21.884Z,17.13
2017-04-27T04:15:49.557Z,16.32
2017-04-27T04:18:18.005Z,19.77
2017-04-27T04:20:45.684Z,17.87
2017-04-27T04:23:13.340Z,15.70
2017-04-27T04:25:41.026Z,17.43
2017-04-27T04:28:08.721Z,15.53
2017-04-27T04:30:37.161Z,17.95
2017-04-27T04:33:04.796Z,12.07
2017-04-27T04:35:32.477Z,12.77
2017-04-27T04:38:00.117Z,27.02
2017-04-27T04:40:27.772Z,26.70
2017-04-27T04:42:55.438Z,36.97
2017-04-27T04:45:23.381Z,48.27
2017-04-27T04:47:51.047Z,33.58
2017-04-27T04:50:19.452Z,30.65
2017-04-27T04:52:47.941Z,22.03
2017-04-27T04:55:15.586Z,20.10
2017-04-27T04:57:43.258Z,18.98
2017-04-27T05:00:10.908Z,19.17
2017-04-27T05:02:38.573Z,17.93
2017-04-27T05:05:06.990Z,17.98
2017-04-27T05:07:34.790Z,24.87
2017-04-27T05:10:02.496Z,16.08
2017-04-27T05:12:30.169Z,17.22
2017-04-27T05:14:57.814Z,16.83
2017-04-27T05:17:25.485Z,19.13
2017-04-27T05:19:53.909Z,17.52
2017-04-27T05:22:21.748Z,23.12
2017-04-27T05:24:49.435Z,24.08
2017-04-27T05:27:17.999Z,18.87
2017-04-27T05:29:46.439Z,20.97
2017-04-27T05:32:14.100Z,20.75
2017-04-27T05:34:41.748Z,22.12
2017-04-27T05:37:09.768Z,19.37
2017-04-27T05:39:37.412Z,17.02
2017-04-27T05:42:05.112Z,16.93
2017-04-27T05:44:33.549Z,23.17
2017-04-27T05:47:01.958Z,19.43
2017-04-27T05:49:29.638Z,21.00
2017-04-27T05:51:57.297Z,23.10
2017-04-27T05:54:26.094Z,19.70
2017-04-27T05:56:53.784Z,18.63
2017-04-27T05:59:21.432Z,19.27
2017-04-27T06:01:49.096Z,22.58
2017-04-27T06:04:16.742Z,23.02
2017-04-27T06:06:44.704Z,19.82
2017-04-27T06:09:13.132Z,22.28
2017-04-27T06:11:41.544Z,19.78
2017-04-27T06:14:09.981Z,20.43
2017-04-27T06:16:37.661Z,17.82
2017-04-27T06:19:05.364Z,20.60
2017-04-27T06:21:33.019Z,24.82
2017-04-27T06:24:01.460Z,21.55
2017-04-27T06:26:29.886Z,23.65
2017-04-27T06:28:58.653Z,23.27
2017-04-27T06:31:26.299Z,21.72
2017-04-27T06:33:53.952Z,18.28
2017-04-27T06:36:21.625Z,16.25
2017-04-27T06:38:49.285Z,15.72
2017-04-27T06:41:17.732Z,18.88
2017-04-27T06:43:45.393Z,19.98
2017-04-27T06:46:13.844Z,24.40
2017-04-27T06:48:41.507Z,18.77
2017-04-27T06:51:10.215Z,22.50
2017-04-27T06:53:38.647Z,23.17
2017-04-27T06:56:07.053Z,21.38
2017-04-27T06:58:34.725Z,21.68
2017-04-27T07:01:02.523Z,21.38
2017-04-27T07:03:30.196Z,21.08
2017-04-27T07:05:57.845Z,19.37
2017-04-27T07:08:26.557Z,27.75
2017-04-27T07:10:54.309Z,23.77
2017-04-27T07:13:21.948Z,23.25
2017-04-27T07:15:49.639Z,20.60
2017-04-27T07:18:17.300Z,23.50
2017-04-27T07:20:45.289Z,25.17
2017-04-27T07:23:12.951Z,18.95
2017-04-27T07:25:41.375Z,22.88
2017-04-27T07:28:09.343Z,23.02
2017-04-27T07:30:37.021Z,21.08
2017-04-27T07:33:05.453Z,21.62
2017-04-27T07:35:33.130Z,21.38
2017-04-27T07:38:00.777Z,20.80
2017-04-27T07:40:29.211Z,23.47
2017-04-27T07:42:56.866Z,17.87
2017-04-27T07:45:25.620Z,19.67
2017-04-27T07:47:53.262Z,20.12
2017-04-27T07:50:20.915Z,22.02
2017-04-27T07:52:48.580Z,20.83
2017-04-27T07:55:16.232Z,23.17
2017-04-27T07:57:44.172Z,20.55
2017-04-27T08:00:11.874Z,19.88
2017-04-27T08:02:39.529Z,20.87
2017-04-27T08:05:07.238Z,20.02
2017-04-27T08:07:34.902Z,23.72
2017-04-27T08:10:03.429Z,22.20
2017-04-27T08:12:31.084Z,20.25
2017-04-27T08:14:59.120Z,19.17
2017-04-27T08:17:27.546Z,21.83
2017-04-27T08:19:55.196Z,21.95
2017-04-27T08:22:22.869Z,22.35
2017-04-27T08:24:50.509Z,21.20
2017-04-27T08:27:18.189Z,20.22
2017-04-27T08:29:45.829Z,19.88
2017-04-27T08:32:13.505Z,20.10
2017-04-27T08:34:41.914Z,16.20
2017-04-27T08:37:09.593Z,15.80
2017-04-27T08:39:38.021Z,16.02
2017-04-27T08:42:06.012Z,10.90
2017-04-27T08:44:33.664Z,11.40
2017-04-27T08:47:01.322Z,11.40
2017-04-27T08:49:28.987Z,10.15
2017-04-27T08:51:57.400Z,11.12
2017-04-27T08:54:25.068Z,10.52
2017-04-27T08:56:52.730Z,11.53
2017-04-27T08:59:20.657Z,13.33
2017-04-27T09:01:48.333Z,9.97
2017-04-27T09:04:16.771Z,9.60
2017-04-27T09:06:45.206Z,9.55
2017-04-27T09:09:12.864Z,7.10
2017-04-27T09:11:40.534Z,8.08
2017-04-27T09:14:09.690Z,8.75
2017-04-27T09:16:39.201Z,8.40
2017-04-27T09:19:06.847Z,8.12
2017-04-27T09:21:34.495Z,9.23
2017-04-27T09:24:02.161Z,8.53
2017-04-27T09:26:29.796Z,9.50
2017-04-27T09:28:57.837Z,8.23
2017-04-27T09:31:25.507Z,8.88
2017-04-27T09:33:53.964Z,7.25
2017-04-27T09:36:21.641Z,8.05
2017-04-27T09:38:50.048Z,8.40
2017-04-27T09:41:18.111Z,10.12
2017-04-27T09:43:45.761Z,10.02
2017-04-27T09:46:13.424Z,9.12
2017-04-27T09:48:41.088Z,10.35
2017-04-27T09:51:08.731Z,9.23
2017-04-27T09:53:36.777Z,9.82
2017-04-27T09:56:04.430Z,9.97
2017-04-27T09:58:32.078Z,9.45
2017-04-27T10:00:59.750Z,10.37
2017-04-27T10:03:27.388Z,9.58
2017-04-27T10:05:56.266Z,8.47
2017-04-27T10:08:23.924Z,10.70
2017-04-27T10:10:52.345Z,10.02
2017-04-27T10:13:20.019Z,9.33
2017-04-27T10:15:48.432Z,10.78
2017-04-27T10:18:16.506Z,9.12
2017-04-27T10:20:44.152Z,9.08
2017-04-27T10:23:12.562Z,9.22
2017-04-27T10:25:41.007Z,10.83
2017-04-27T10:28:08.665Z,8.28
2017-04-27T10:30:37.386Z,8.88
2017-04-27T10:33:05.028Z,8.85
2017-04-27T10:35:33.441Z,8.63
2017-04-27T10:38:01.113Z,14.35
2017-04-27T10:40:28.761Z,7.12
2017-04-27T10:42:56.860Z,8.13
2017-04-27T10:45:24.497Z,7.52
2017-04-27T10:47:52.143Z,7.90
2017-04-27T10:50:19.816Z,6.82
2017-04-27T10:52:47.460Z,7.32
2017-04-27T10:55:15.884Z,7.50
2017-04-27T10:57:43.524Z,8.00
2017-04-27T11:00:11.506Z,8.63
2017-04-27T11:02:39.152Z,9.55
2017-04-27T11:05:06.931Z,10.40
2017-04-27T11:07:35.372Z,8.25
2017-04-27T11:10:03.061Z,9.37
2017-04-27T11:12:31.473Z,8.62
2017-04-27T11:14:59.591Z,9.65
2017-04-27T11:17:28.006Z,11.03
2017-04-27T11:19:56.435Z,9.87
2017-04-27T11:22:24.916Z,9.83
2017-04-27T11:24:53.949Z,10.35
2017-04-27T11:27:22.681Z,10.25
2017-04-27T11:29:50.322Z,10.28
2017-04-27T11:32:18.733Z,10.92
2017-04-27T11:34:46.402Z,10.58
2017-04-27T11:37:14.050Z,10.77
2017-04-27T11:39:41.732Z,11.23
2017-04-27T11:42:09.383Z,10.83
2017-04-27T11:44:37.053Z,9.92
2017-04-27T11:47:06.198Z,10.30
2017-04-27T11:49:34.136Z,10.82
2017-04-27T11:52:01.785Z,11.28
2017-04-27T11:54:29.427Z,11.02
2017-04-27T11:56:57.097Z,10.45
2017-04-27T11:59:24.741Z,9.97
2017-04-27T12:01:52.703Z,10.08
2017-04-27T12:04:20.350Z,10.57
2017-04-27T12:06:47.992Z,9.25
2017-04-27T12:09:15.663Z,8.60
2017-04-27T12:11:44.810Z,7.68
2017-04-27T12:14:12.483Z,8.97
2017-04-27T12:16:40.133Z,9.95
2017-04-27T12:19:07.812Z,8.03
2017-04-27T12:21:36.216Z,8.25
2017-04-27T12:24:04.242Z,9.57
2017-04-27T12:26:31.889Z,8.47
2017-04-27T12:28:59.533Z,8.62
2017-04-27T12:31:27.197Z,8.13
2017-04-27T12:33:55.601Z,7.95
2017-04-27T12:36:24.360Z,7.12
2017-04-27T12:38:51.995Z,8.48
2017-04-27T12:41:19.647Z,8.05
2017-04-27T12:43:47.308Z,7.98
2017-04-27T12:46:15.716Z,7.20
2017-04-27T12:48:44.158Z,7.80
2017-04-27T12:51:11.805Z,8.02
2017-04-27T12:53:39.468Z,8.38
2017-04-27T12:56:07.872Z,7.42
2017-04-27T12:58:35.815Z,7.43
2017-04-27T13:01:03.462Z,7.18
2017-04-27T13:03:31.100Z,7.68
2017-04-27T13:05:58.763Z,8.48
2017-04-27T13:08:26.409Z,7.18
2017-04-27T13:10:55.129Z,8.57
2017-04-27T13:13:22.779Z,8.18
2017-04-27T13:15:51.206Z,7.70
2017-04-27T13:18:18.886Z,7.57
2017-04-27T13:20:47.297Z,7.68
2017-04-27T13:23:15.993Z,8.73
2017-04-27T13:25:44.410Z,6.92
2017-04-27T13:28:12.821Z,8.47
2017-04-27T13:30:40.486Z,7.12
2017-04-27T13:33:08.124Z,7.40
2017-04-27T13:35:35.794Z,5.85
2017-04-27T13:38:03.439Z,7.33
2017-04-27T13:40:32.613Z,6.48
2017-04-27T13:43:00.253Z,5.97
2017-04-27T13:45:28.204Z,6.10
2017-04-27T13:47:55.849Z,7.12
2017-04-27T13:50:23.521Z,6.70
2017-04-27T13:52:51.189Z,6.67
2017-04-27T13:55:18.838Z,5.03
2017-04-27T13:57:46.771Z,6.10
2017-04-27T14:00:15.182Z,6.85
2017-04-27T14:02:43.608Z,8.15
2017-04-27T14:05:12.045Z,5.48
2017-04-27T14:07:39.686Z,6.92
2017-04-27T14:10:07.351Z,6.55
2017-04-27T14:12:34.995Z,7.00
2017-04-27T14:15:02.678Z,6.10
2017-04-27T14:17:31.109Z,7.15
2017-04-27T14:19:58.798Z,6.42
2017-04-27T14:22:27.205Z,6.73
2017-04-27T14:24:56.387Z,7.42
2017-04-27T14:27:24.038Z,7.70
2017-04-27T14:29:51.977Z,6.30
2017-04-27T14:32:19.616Z,7.28
2017-04-27T14:34:47.264Z,8.70
2017-04-27T14:37:14.933Z,8.53
2017-04-27T14:39:42.580Z,7.13
2017-04-27T14:42:10.626Z,8.65
2017-04-27T14:44:38.276Z,6.80
2017-04-27T14:47:05.938Z,6.62
2017-04-27T14:49:33.608Z,7.02
2017-04-27T14:52:02.017Z,8.00
2017-04-27T14:54:29.658Z,7.70
2017-04-27T14:56:57.439Z,7.32
2017-04-27T14:59:25.096Z,9.02
2017-04-27T15:01:52.762Z,7.03
2017-04-27T15:04:20.405Z,6.60
2017-04-27T15:06:48.854Z,6.68
2017-04-27T15:09:16.492Z,8.73
2017-04-27T15:11:45.669Z,6.68
2017-04-27T15:14:13.317Z,5.63
2017-04-27T15:16:43.012Z,6.65
2017-04-27T15:19:11.183Z,7.08
2017-04-27T15:21:39.861Z,7.25
2017-04-27T15:24:07.533Z,8.88
2017-04-27T15:26:35.193Z,6.75
2017-04-27T15:29:02.870Z,6.63
2017-04-27T15:31:31.268Z,5.77
2017-04-27T15:33:59.710Z,8.75
2017-04-27T15:36:27.361Z,6.42
2017-04-27T15:38:55.292Z,7.05
2017-04-27T15:41:22.961Z,7.85
2017-04-27T15:43:50.598Z,6.57
2017-04-27T15:46:18.262Z,6.00
2017-04-27T15:48:45.903Z,6.35
2017-04-27T15:51:13.564Z,6.63
2017-04-27T15:53:41.988Z,7.95
2017-04-27T15:56:09.936Z,5.78
2017-04-27T15:58:37.581Z,6.32
2017-04-27T16:01:06.396Z,7.32
2017-04-27T16:03:34.065Z,5.53
2017-04-27T16:06:02.468Z,7.00
2017-04-27T16:08:30.629Z,7.20
2017-04-27T16:10:58.323Z,6.10
2017-04-27T16:13:26.725Z,6.98
2017-04-27T16:15:54.393Z,7.40
2017-04-27T16:18:22.037Z,5.90
2017-04-27T16:20:49.705Z,6.82
2017-04-27T16:23:17.353Z,5.63
2017-04-27T16:25:45.296Z,6.10
2017-04-27T16:28:12.944Z,5.75
2017-04-27T16:30:40.593Z,5.25
2017-04-27T16:33:08.262Z,6.78
2017-04-27T16:35:35.897Z,9.18
2017-04-27T16:38:03.821Z,7.75
2017-04-27T16:40:31.465Z,8.25
2017-04-27T16:42:59.113Z,10.05
2017-04-27T16:45:27.541Z,10.03
2017-04-27T16:47:55.185Z,9.30
2017-04-27T16:50:23.620Z,11.05
2017-04-27T16:52:51.282Z,9.17
2017-04-27T16:55:20.005Z,12.55
2017-04-27T16:57:48.418Z,11.05
2017-04-27T17:00:16.828Z,10.40
2017-04-27T17:02:45.265Z,10.57
2017-04-27T17:05:12.912Z,11.88
2017-04-27T17:07:41.730Z,12.83
2017-04-27T17:10:09.376Z,13.70
2017-04-27T17:12:37.785Z,11.98
2017-04-27T17:15:06.239Z,14.60
2017-04-27T17:17:34.644Z,12.90
2017-04-27T17:20:02.597Z,13.87
2017-04-27T17:22:31.005Z,11.97
2017-04-27T17:24:58.661Z,12.63
2017-04-27T17:27:26.337Z,12.28
2017-04-27T17:29:54.754Z,10.83
2017-04-27T17:32:22.417Z,16.15
2017-04-27T17:34:51.468Z,12.55
2017-04-27T17:37:19.140Z,12.17
2017-04-27T17:39:46.788Z,12.72
2017-04-27T17:42:14.804Z,14.05
2017-04-27T17:44:43.276Z,12.30
2017-04-27T17:47:11.799Z,11.22
2017-04-27T17:49:40.234Z,11.85
2017-04-27T17:52:08.659Z,12.82
2017-04-27T17:54:37.434Z,13.00
2017-04-27T17:57:05.097Z,11.38
2017-04-27T17:59:32.749Z,13.33
2017-04-27T18:02:00.417Z,13.08
2017-04-27T18:04:28.063Z,12.93
2017-04-27T18:06:55.728Z,13.50
2017-04-27T18:09:24.129Z,12.75
2017-04-27T18:11:52.099Z,11.18
2017-04-27T18:14:19.747Z,11.47
2017-04-27T18:16:47.420Z,13.05
2017-04-27T18:19:15.093Z,11.30
2017-04-27T18:21:43.508Z,11.52
2017-04-27T18:24:11.936Z,10.63
2017-04-27T18:26:39.578Z,11.03
2017-04-27T18:29:07.671Z,12.20
2017-04-27T18:31:35.568Z,12.78
2017-04-27T18:34:03.213Z,12.02
2017-04-27T18:36:31.646Z,12.28
2017-04-27T18:41:36.389Z,12.20
2017-04-27T18:44:04.811Z,14.12
2017-04-27T18:46:32.445Z,12.13
2017-04-27T18:49:00.888Z,13.05
2017-04-27T18:51:28.530Z,11.53
2017-04-27T18:53:57.230Z,10.82
2017-04-27T18:56:24.883Z,13.13
2017-04-27T18:58:52.522Z,11.93
2017-04-27T19:01:20.488Z,12.23
2017-04-27T19:03:48.128Z,11.58
2017-04-27T19:06:15.767Z,10.32
2017-04-27T19:08:43.425Z,10.67
2017-04-27T19:11:11.073Z,9.42
2017-04-27T19:13:39.029Z,14.15
2017-04-27T19:16:06.660Z,8.68
2017-04-27T19:18:34.305Z,9.23
2017-04-27T19:21:02.729Z,9.45
2017-04-27T19:23:31.135Z,11.38
2017-04-27T19:25:58.795Z,8.75
2017-04-27T19:28:26.442Z,8.22
2017-04-27T19:30:54.872Z,10.30
2017-04-27T19:33:22.541Z,11.32
2017-04-27T19:35:50.514Z,11.03
2017-04-27T19:38:18.962Z,12.67
2017-04-27T19:40:46.683Z,10.58
2017-04-27T19:43:15.124Z,13.17
2017-04-27T19:45:42.772Z,12.70
2017-04-27T19:48:11.956Z,11.02
2017-04-27T19:50:39.592Z,11.95
2017-04-27T19:53:08.022Z,13.22
2017-04-27T19:55:35.669Z,15.60
2017-04-27T19:58:03.333Z,13.57
2017-04-27T20:00:30.974Z,12.62
2017-04-27T20:02:58.645Z,13.67
2017-04-27T20:05:26.293Z,13.65
2017-04-27T20:07:55.564Z,16.73
2017-04-27T20:10:23.402Z,15.75
2017-04-27T20:12:51.081Z,15.27
2017-04-27T20:15:24.073Z,13.53
2017-04-27T20:17:52.511Z,14.47
2017-04-27T20:20:20.162Z,14.57
2017-04-27T20:22:47.914Z,14.10
2017-04-27T20:25:15.569Z,11.95
2017-04-27T20:27:44.001Z,11.77
2017-04-27T20:30:11.658Z,14.07
2017-04-27T20:32:39.329Z,15.00
2017-04-27T20:35:07.749Z,13.20
2017-04-27T20:37:36.199Z,16.72
2017-04-27T20:40:03.860Z,15.52
2017-04-27T20:42:32.284Z,15.00
2017-04-27T20:45:00.692Z,12.22
2017-04-27T20:47:28.380Z,18.05
2017-04-27T20:49:56.801Z,15.33
2017-04-27T20:52:24.459Z,12.97
2017-04-27T20:54:52.136Z,16.10
2017-04-27T20:57:20.704Z,16.05
2017-04-27T21:00:04.485Z,16.38
2017-04-27T21:02:32.159Z,13.68
2017-04-27T21:04:59.813Z,14.08
2017-04-27T21:07:28.989Z,12.37
2017-04-27T21:09:57.408Z,16.60
2017-04-27T21:12:25.072Z,14.90
2017-04-27T21:14:52.733Z,15.10
2017-04-27T21:17:20.402Z,16.17
2017-04-27T21:19:48.047Z,15.55
2017-04-27T21:22:15.726Z,15.45
2017-04-27T21:24:43.378Z,16.15
2017-04-27T21:27:11.041Z,16.70
2017-04-27T21:29:39.449Z,15.73
2017-04-27T21:32:07.122Z,17.93
2017-04-27T21:34:34.773Z,15.33
2017-04-27T21:37:02.777Z,15.78
2017-04-27T21:39:31.908Z,14.65
2017-04-27T21:42:00.325Z,17.27
2017-04-27T21:44:29.504Z,13.13
2017-04-27T21:46:57.918Z,18.52
2017-04-27T21:49:25.897Z,14.07
2017-04-27T21:51:53.551Z,13.95
2017-04-27T21:54:21.194Z,14.87
2017-04-27T21:56:49.628Z,17.63
2017-04-27T21:59:18.037Z,19.72
2017-04-27T22:01:45.715Z,17.53
2017-04-27T22:04:13.500Z,17.37
2017-04-27T22:06:41.179Z,18.28
2017-04-27T22:09:08.817Z,15.12
2017-04-27T22:11:36.489Z,14.55
2017-04-27T22:14:04.909Z,18.87
2017-04-27T22:16:33.816Z,16.92
2017-04-27T22:19:02.245Z,16.47
2017-04-27T22:21:30.657Z,15.13
2017-04-27T22:23:59.119Z,18.03
2017-04-27T22:26:26.784Z,14.13
2017-04-27T22:28:54.819Z,17.70
2017-04-27T22:31:23.241Z,18.22
2017-04-27T22:33:50.891Z,18.25
2017-04-27T22:36:18.560Z,20.38
2017-04-27T22:38:46.204Z,13.68
2017-04-27T22:41:13.860Z,18.97
2017-04-27T22:43:42.636Z,18.37
2017-04-27T22:46:11.280Z,17.58
2017-04-27T22:48:38.922Z,15.60
2017-04-27T22:51:06.601Z,15.85
2017-04-27T22:53:34.250Z,16.17
2017-04-27T22:56:03.041Z,17.50
2017-04-27T22:58:30.695Z,15.53
2017-04-27T23:00:58.347Z,14.55
2017-04-27T23:03:26.030Z,15.20
2017-04-27T23:05:53.679Z,18.92
2017-04-27T23:08:21.358Z,19.88
2017-04-27T23:10:49.768Z,16.38
2017-04-27T23:13:18.218Z,16.02
2017-04-27T23:15:47.360Z,16.75
2017-04-27T23:18:15.428Z,20.12
2017-04-27T23:20:43.103Z,19.38
2017-04-27T23:23:11.519Z,18.37
2017-04-27T23:25:39.193Z,21.50
2017-04-27T23:28:06.846Z,16.52
2017-04-27T23:30:34.886Z,18.90
2017-04-27T23:33:03.297Z,18.20
2017-04-27T23:35:31.716Z,19.28
2017-04-27T23:37:59.404Z,17.25
2017-04-27T23:40:27.816Z,18.95
2017-04-27T23:42:55.782Z,19.98
2017-04-27T23:45:23.424Z,17.07
2017-04-27T23:47:51.839Z,18.88
2017-04-27T23:50:20.282Z,18.50
2017-04-27T23:52:47.921Z,15.13
2017-04-27T23:55:15.593Z,15.23
2017-04-27T23:57:44.006Z,14.82
